Time;durP1;ratioP1;P1;durP2;ratioP2;P2;SDS_P1;SDS_P2;PMS_P1;PMS_P2;Temp;Humidity;BMP_temperature;BMP_pressure;BME280_temperature;BME280_humidity;BME280_pressure;Samples;Min_cycle;Max_cycle;Signal;HPM_P1;HPM_P2
2021/04/12 00:00:27;;;;;;;2.03;1.92;;;;;;;3.86;86.44;99822.69;2037622;77;20292;-68
2021/04/12 00:03:44;;;;;;;1.70;1.60;;;;;;;3.86;86.37;99820.13;2037003;79;20951;-68
2021/04/12 00:06:51;;;;;;;1.69;1.59;;;;;;;3.86;86.17;99802.13;2038073;79;20340;-67
2021/04/12 00:10:04;;;;;;;1.56;1.46;;;;;;;3.88;86.07;99813.31;2038168;79;20315;-68
2021/04/12 00:13:16;;;;;;;1.44;1.34;;;;;;;3.89;85.93;99815.06;2037740;79;20349;-67
2021/04/12 00:16:26;;;;;;;1.79;1.42;;;;;;;3.92;85.81;99815.16;2037650;77;22176;-68
2021/04/12 00:19:52;;;;;;;1.76;1.45;;;;;;;3.91;85.79;99824.56;2038699;79;20303;-67
2021/04/12 00:23:02;;;;;;;3.35;1.58;;;;;;;3.93;85.63;99827.16;2038385;79;20363;-67
2021/04/12 00:26:28;;;;;;;1.77;1.61;;;;;;;3.89;85.50;99836.47;2038415;79;20307;-67
2021/04/12 00:29:48;;;;;;;2.33;1.63;;;;;;;3.87;85.39;99850.13;2038347;79;20299;-67
2021/04/12 00:33:10;;;;;;;1.89;1.79;;;;;;;3.85;85.43;99865.47;2036991;77;20738;-67
2021/04/12 00:36:28;;;;;;;1.55;1.45;;;;;;;3.77;85.51;99863.50;2037389;79;20307;-67
2021/04/12 00:39:38;;;;;;;1.46;1.36;;;;;;;3.75;85.66;99850.59;2038724;79;20307;-67
2021/04/12 00:42:51;;;;;;;1.52;1.42;;;;;;;3.75;85.72;99866.00;2038528;79;20363;-68
2021/04/12 00:46:26;;;;;;;2.84;1.20;;;;;;;3.73;85.56;99869.38;2036669;79;20646;-67
2021/04/12 00:49:37;;;;;;;1.56;1.46;;;;;;;3.71;85.43;99876.16;2037791;79;20425;-67
2021/04/12 00:53:00;;;;;;;1.52;1.42;;;;;;;3.67;85.47;99877.75;2038461;79;20323;-67
2021/04/12 00:56:11;;;;;;;1.51;1.41;;;;;;;3.60;85.51;99876.72;2037723;79;20345;-68
2021/04/12 00:59:49;;;;;;;1.75;1.44;;;;;;;3.60;85.60;99868.16;2038301;79;20308;-68
2021/04/12 01:02:56;;;;;;;2.86;2.11;;;;;;;3.60;85.61;99871.59;2030967;77;21209;-67
2021/04/12 01:06:14;;;;;;;2.69;1.64;;;;;;;3.58;85.45;99880.03;2038093;79;20327;-67
2021/04/12 01:09:53;;;;;;;2.26;2.10;;;;;;;3.54;85.31;99876.50;2038228;79;20319;-67
2021/04/12 01:13:18;;;;;;;2.28;1.74;;;;;;;3.51;85.42;99888.38;2037974;79;20392;-67
2021/04/12 01:16:39;;;;;;;2.56;1.86;;;;;;;3.50;85.63;99882.38;2037356;76;20983;-67
2021/04/12 01:20:06;;;;;;;2.60;1.96;;;;;;;3.49;85.54;99874.63;2038751;79;20425;-67
2021/04/12 01:23:44;;;;;;;2.31;1.99;;;;;;;3.48;85.36;99884.03;2038946;79;20842;-67
2021/04/12 01:27:10;;;;;;;3.16;2.20;;;;;;;3.46;85.45;99882.22;2022357;79;20347;-67
2021/04/12 01:30:20;;;;;;;2.30;2.11;;;;;;;3.45;85.29;99881.38;2037162;77;20357;-68
2021/04/12 01:33:35;;;;;;;3.08;2.83;;;;;;;3.41;85.17;99884.66;2037726;79;20383;-67
2021/04/12 01:36:44;;;;;;;2.46;2.11;;;;;;;3.39;85.10;99887.97;2038297;79;21651;-67
2021/04/12 01:40:01;;;;;;;3.50;2.41;;;;;;;3.33;85.03;99892.09;2038513;79;20312;-67
2021/04/12 01:43:27;;;;;;;2.79;2.50;;;;;;;3.35;84.91;99884.44;2037749;79;20303;-68
2021/04/12 01:46:47;;;;;;;3.08;2.19;;;;;;;3.33;85.01;99893.78;2036763;76;20335;-67
2021/04/12 01:49:54;;;;;;;;;;;;;;;3.31;85.01;99905.72;2037771;79;20424;-67
2021/04/12 01:53:22;;;;;;;2.41;2.21;;;;;;;3.29;84.85;99922.75;2037936;79;20056;-68
2021/04/12 01:56:46;;;;;;;2.81;2.23;;;;;;;3.21;84.64;99917.34;2038359;79;20830;-67
2021/04/12 02:00:17;;;;;;;3.05;2.35;;;;;;;3.13;84.83;99920.50;2038624;79;20255;-67
2021/04/12 02:03:44;;;;;;;2.76;2.49;;;;;;;3.12;85.06;99935.00;2033437;79;20340;-67
2021/04/12 02:06:50;;;;;;;2.90;2.70;;;;;;;3.10;84.99;99933.22;2035091;79;20338;-68
2021/04/12 02:10:45;;;;;;;2.90;2.70;;;;;;;3.09;85.01;99934.03;2034790;79;20304;-68
2021/04/12 02:14:05;;;;;;;2.74;2.54;;;;;;;3.08;85.20;99938.31;2018677;79;20341;-67
2021/04/12 02:17:49;;;;;;;4.21;2.66;;;;;;;3.02;85.12;99932.94;2039837;77;25259;-67
2021/04/12 02:21:19;;;;;;;2.76;2.46;;;;;;;3.02;85.09;99941.50;2039434;79;20425;-67
2021/04/12 02:24:36;;;;;;;3.95;2.60;;;;;;;2.98;85.02;99938.78;2040461;79;20983;-67
2021/04/12 02:27:50;;;;;;;4.13;2.44;;;;;;;2.98;84.89;99938.78;2040379;79;20863;-67
2021/04/12 02:31:21;;;;;;;2.83;2.38;;;;;;;2.93;84.91;99951.47;2039249;76;21181;-67
2021/04/12 02:34:38;;;;;;;2.22;2.08;;;;;;;2.88;84.85;99953.00;2040038;79;20312;-67
2021/04/12 02:38:14;;;;;;;2.64;2.44;;;;;;;2.86;84.79;99958.88;2039777;79;21200;-67
2021/04/12 02:41:53;;;;;;;2.67;2.47;;;;;;;2.84;84.74;99960.50;2039753;79;20529;-67
2021/04/12 02:45:19;;;;;;;3.21;2.26;;;;;;;2.79;84.87;99964.63;2039907;79;20344;-68
2021/04/12 02:48:40;;;;;;;3.15;2.78;;;;;;;2.77;85.15;99969.69;2035474;79;20516;-67
2021/04/12 02:51:48;;;;;;;2.70;2.49;;;;;;;2.75;85.30;99975.59;2034690;79;20349;-67
2021/04/12 02:55:25;;;;;;;2.63;2.41;;;;;;;2.71;85.47;99985.75;2034920;79;21081;-67
2021/04/12 02:58:38;;;;;;;2.86;2.64;;;;;;;2.69;85.47;99989.03;2034382;79;20320;-75
2021/04/12 03:02:11;;;;;;;3.05;2.75;;;;;;;2.65;85.58;100000.88;2036966;77;21150;-67
2021/04/12 03:05:28;;;;;;;2.95;2.42;;;;;;;2.62;85.85;100010.16;2038168;79;20411;-67
2021/04/12 03:08:54;;;;;;;2.86;2.36;;;;;;;2.57;86.08;100011.69;2038850;79;20351;-66
2021/04/12 03:12:33;;;;;;;2.78;2.33;;;;;;;2.52;86.08;100011.50;2038911;79;20308;-67
2021/04/12 03:15:42;;;;;;;2.27;2.16;;;;;;;2.47;86.15;100013.00;2037079;76;20825;-67
2021/04/12 03:19:18;;;;;;;3.30;2.19;;;;;;;2.43;86.22;100012.03;2039158;79;20168;-67
2021/04/12 03:22:55;;;;;;;2.44;2.24;;;;;;;2.44;86.13;100010.34;2038448;79;20995;-67
2021/04/12 03:26:03;;;;;;;2.59;2.39;;;;;;;2.36;85.95;100009.19;2038687;79;20361;-67
2021/04/12 03:29:17;;;;;;;3.89;2.83;;;;;;;2.33;86.01;100011.59;2038667;79;20303;-66
2021/04/12 03:37:02;;;;;;;3.36;2.54;;;;;;;2.35;85.80;100031.38;2026589;79;20429;-67
2021/04/12 03:40:31;;;;;;;3.34;2.30;;;;;;;2.27;85.83;100030.19;2028090;79;21131;-66
2021/04/12 03:44:03;;;;;;;3.13;2.28;;;;;;;2.28;85.83;100031.94;2028453;79;20322;-66
2021/04/12 03:47:20;;;;;;;2.47;2.28;;;;;;;2.25;85.92;100033.50;2030805;76;20334;-67
2021/04/12 03:50:25;;;;;;;2.69;2.49;;;;;;;2.21;85.92;100040.22;2033220;79;20378;-67
2021/04/12 03:53:59;;;;;;;2.71;2.50;;;;;;;2.17;85.81;100040.91;2033242;79;20778;-66
2021/04/12 03:57:16;;;;;;;3.04;2.54;;;;;;;2.14;85.83;100043.31;2033284;79;20342;-67
2021/04/12 04:00:44;;;;;;;4.15;3.05;;;;;;;2.14;86.02;100048.44;2033360;79;25219;-67
2021/04/12 04:04:08;;;;;;;2.80;2.60;;;;;;;2.12;86.24;100057.75;2038709;79;20705;-67
2021/04/12 04:07:24;;;;;;;2.83;2.35;;;;;;;2.12;86.39;100066.31;2038769;79;20360;-67
2021/04/12 04:10:44;;;;;;;5.14;3.31;;;;;;;2.10;86.30;100069.63;2038738;79;20307;-66
2021/04/12 04:14:00;;;;;;;2.88;2.63;;;;;;;2.10;86.28;100073.06;2038585;79;20427;-66
2021/04/12 04:17:13;;;;;;;5.31;2.65;;;;;;;2.10;86.23;100074.75;2034365;77;20342;-67
2021/04/12 04:20:48;;;;;;;2.83;2.59;;;;;;;2.07;86.29;100078.06;2033499;79;20790;-66
2021/04/12 04:24:05;;;;;;;4.22;2.46;;;;;;;2.04;86.30;100077.97;2033249;79;20867;-67
2021/04/12 04:27:34;;;;;;;4.65;2.76;;;;;;;2.02;86.27;100084.72;2034438;79;20709;-67
2021/04/12 04:31:04;;;;;;;2.70;2.58;;;;;;;2.01;86.28;100087.22;2033508;79;20303;-66
2021/04/12 04:34:29;;;;;;;2.72;2.53;;;;;;;1.96;86.21;100084.44;2038508;79;20198;-67
2021/04/12 04:37:53;;;;;;;3.34;2.45;;;;;;;1.96;86.10;100091.25;2038808;79;20420;-67
2021/04/12 04:41:05;;;;;;;3.01;2.74;;;;;;;1.91;85.89;100093.63;2038950;79;20329;-67
2021/04/12 04:44:17;;;;;;;2.95;2.64;;;;;;;1.84;85.61;100094.19;2038579;79;20311;-66
2021/04/12 04:47:41;;;;;;;4.13;2.80;;;;;;;1.81;85.57;100107.75;2038825;79;20750;-67
2021/04/12 04:50:54;;;;;;;3.35;2.86;;;;;;;1.76;85.48;100106.66;2038734;79;20766;-66
2021/04/12 04:54:36;;;;;;;3.20;2.90;;;;;;;1.74;85.61;100110.84;2038498;79;20466;-67
2021/04/12 04:57:50;;;;;;;3.58;2.89;;;;;;;1.71;85.68;100120.09;2039675;79;21360;-66
2021/04/12 05:01:09;;;;;;;3.94;2.54;;;;;;;1.63;85.65;100124.00;2038510;79;20288;-67
2021/04/12 05:04:31;;;;;;;3.21;2.80;;;;;;;1.58;85.55;100118.69;2038733;79;20360;-66
2021/04/12 05:07:44;;;;;;;3.14;2.79;;;;;;;1.52;85.64;100123.53;2039296;79;20321;-67
2021/04/12 05:11:22;;;;;;;3.99;3.06;;;;;;;1.48;85.57;100137.88;2038952;79;20307;-66
2021/04/12 05:14:54;;;;;;;4.61;2.36;;;;;;;1.44;85.58;100145.38;2038396;79;20798;-66
2021/04/12 05:18:16;;;;;;;2.72;2.53;;;;;;;1.39;85.54;100150.25;2038271;79;20315;-66
2021/04/12 05:21:39;;;;;;;4.01;2.69;;;;;;;1.36;85.43;100151.81;2038357;79;20343;-66
2021/04/12 05:24:57;;;;;;;3.59;2.63;;;;;;;1.29;85.28;100153.25;2038382;79;20335;-65
2021/04/12 05:28:13;;;;;;;2.65;2.45;;;;;;;1.26;85.17;100162.44;2038196;79;20311;-67
2021/04/12 05:31:36;;;;;;;2.64;2.42;;;;;;;1.28;85.19;100178.75;2038622;79;20303;-66
2021/04/12 05:35:06;;;;;;;3.63;2.74;;;;;;;1.29;85.02;100180.50;2037774;79;20334;-66
2021/04/12 05:38:31;;;;;;;4.47;3.14;;;;;;;1.24;85.05;100182.84;2038649;79;20345;-65
2021/04/12 05:42:03;;;;;;;3.70;3.20;;;;;;;1.25;85.28;100191.38;2038157;79;20345;-65
2021/04/12 05:45:29;;;;;;;3.63;2.81;;;;;;;1.26;85.33;100199.16;2037921;79;20344;-66
2021/04/12 05:48:51;;;;;;;2.65;2.45;;;;;;;1.31;85.58;100212.16;2038522;79;21320;-66
2021/04/12 05:52:04;;;;;;;4.10;2.30;;;;;;;1.37;85.53;100218.41;2038171;79;20373;-66
2021/04/12 05:55:15;;;;;;;5.03;2.64;;;;;;;1.41;85.47;100210.06;2038597;79;20472;-66
2021/04/12 05:58:32;;;;;;;3.49;2.50;;;;;;;1.45;85.62;100227.31;2038596;79;20315;-66
2021/04/12 06:01:49;;;;;;;3.14;2.58;;;;;;;1.50;85.61;100225.84;2038223;79;21004;-66
2021/04/12 06:05:19;;;;;;;4.03;2.69;;;;;;;1.68;85.60;100232.59;2038451;79;20457;-66
2021/04/12 06:08:36;;;;;;;2.54;2.34;;;;;;;1.92;85.33;100235.34;2038354;79;20357;-66
2021/04/12 06:12:15;;;;;;;3.89;2.22;;;;;;;2.16;85.06;100236.41;2039407;79;20315;-67
2021/04/12 06:15:54;;;;;;;2.82;2.17;;;;;;;2.52;84.60;100246.44;2037959;79;20337;-67
2021/04/12 06:19:24;;;;;;;2.10;1.81;;;;;;;2.86;83.63;100240.97;2037190;79;20198;-67
2021/04/12 06:22:40;;;;;;;2.31;1.90;;;;;;;3.41;82.28;100246.59;2038524;79;20359;-67
2021/04/12 06:25:42;;;;;;;4.16;2.15;;;;;;;3.83;80.58;100249.84;2037870;79;20812;-71
2021/04/12 06:28:52;;;;;;;3.74;2.24;;;;;;;4.21;79.18;100256.34;2038601;79;21170;-68
2021/04/12 06:32:09;;;;;;;3.67;2.14;;;;;;;4.58;77.27;100260.19;2038526;79;20292;-68
2021/04/12 06:35:45;;;;;;;3.89;2.11;;;;;;;4.69;76.06;100258.84;2037016;79;21260;-68
2021/04/12 06:39:37;;;;;;;3.33;1.84;;;;;;;5.21;74.52;100251.91;2038178;79;21045;-69
2021/04/12 06:43:12;;;;;;;3.40;2.22;;;;;;;5.63;72.63;100268.66;2024025;79;20773;-69
2021/04/12 06:46:44;;;;;;;2.42;1.69;;;;;;;6.11;71.58;100273.50;2038495;79;20422;-70
2021/04/12 06:50:24;;;;;;;2.05;1.76;;;;;;;6.26;70.06;100275.59;2039829;79;20331;-70
2021/04/12 06:54:07;;;;;;;2.71;1.74;;;;;;;6.30;69.77;100282.59;2038486;79;20335;-74
2021/04/12 06:57:35;;;;;;;2.94;2.10;;;;;;;6.53;69.35;100275.47;2039548;79;20590;-71
2021/04/12 07:00:44;;;;;;;3.96;2.54;;;;;;;6.68;69.17;100285.31;2039162;79;20336;-74
2021/04/12 07:04:14;;;;;;;5.79;3.06;;;;;;;6.69;67.71;100292.22;2039347;79;20296;-72
2021/04/12 07:07:49;;;;;;;3.95;2.29;;;;;;;6.75;68.00;100293.25;2037719;79;20699;-71
2021/04/12 07:11:32;;;;;;;3.29;2.09;;;;;;;6.90;67.89;100298.78;2037814;79;20308;-71
2021/04/12 07:15:10;;;;;;;3.33;2.96;;;;;;;7.10;67.54;100296.69;2033584;79;20384;-72
2021/04/12 07:18:42;;;;;;;4.74;3.06;;;;;;;7.40;67.56;100291.38;2039035;79;20176;-71
2021/04/12 07:22:12;;;;;;;3.71;2.84;;;;;;;7.72;66.47;100292.09;2038676;79;20323;-71
2021/04/12 07:25:35;;;;;;;4.59;2.84;;;;;;;7.72;64.02;100301.53;2038552;79;20429;-72
2021/04/12 07:29:27;;;;;;;3.51;2.90;;;;;;;7.86;63.99;100308.75;2039293;79;20216;-70
2021/04/12 07:32:37;;;;;;;3.75;3.03;;;;;;;7.87;62.23;100302.72;2039287;79;20262;-70
2021/04/12 07:36:01;;;;;;;4.47;3.21;;;;;;;8.07;63.11;100308.31;2038656;79;20191;-70
2021/04/12 07:39:26;;;;;;;5.39;3.92;;;;;;;8.24;61.59;100316.41;2038577;79;20180;-70
2021/04/12 07:43:19;;;;;;;5.59;3.66;;;;;;;8.29;60.65;100314.81;2039521;79;20600;-70
2021/04/12 07:46:48;;;;;;;6.26;3.41;;;;;;;8.50;61.19;100316.09;2030828;79;20751;-70
2021/04/12 07:50:02;;;;;;;5.95;2.99;;;;;;;8.60;57.68;100320.59;2039622;79;20447;-70
2021/04/12 07:53:22;;;;;;;4.20;2.61;;;;;;;8.77;59.33;100327.81;2038397;79;20760;-70
2021/04/12 07:56:46;;;;;;;4.43;2.05;;;;;;;8.69;57.34;100325.94;2039297;79;20200;-70
2021/04/12 08:00:25;;;;;;;2.72;1.89;;;;;;;8.59;55.18;100334.38;2038469;79;20192;-70
2021/04/12 08:03:27;;;;;;;5.39;2.94;;;;;;;8.63;58.12;100329.31;2038361;79;20188;-70
2021/04/12 08:06:54;;;;;;;4.15;2.71;;;;;;;8.95;58.60;100334.16;2037995;79;20688;-70
2021/04/12 08:10:34;;;;;;;3.10;2.06;;;;;;;9.39;57.48;100340.09;2039040;79;20198;-70
2021/04/12 08:14:12;;;;;;;3.03;1.50;;;;;;;9.84;54.61;100333.81;2039026;79;20208;-70
2021/04/12 08:17:57;;;;;;;1.94;1.30;;;;;;;10.34;54.61;100344.00;2038844;79;20255;-70
2021/04/12 08:21:08;;;;;;;1.65;1.30;;;;;;;10.59;52.35;100344.31;2039120;79;20176;-70
2021/04/12 08:24:45;;;;;;;2.51;1.44;;;;;;;10.43;53.07;100352.78;2039063;79;20180;-70
2021/04/12 08:28:25;;;;;;;2.70;1.34;;;;;;;9.66;53.42;100347.38;2038610;79;21336;-71
2021/04/12 08:31:52;;;;;;;1.72;1.00;;;;;;;9.20;55.91;100358.78;2038915;79;20164;-70
2021/04/12 08:35:22;;;;;;;1.80;1.10;;;;;;;9.04;52.30;100352.47;2038226;79;20223;-70
2021/04/12 08:38:48;;;;;;;1.46;0.90;;;;;;;9.52;54.19;100352.41;2038647;79;20172;-70
2021/04/12 08:42:21;;;;;;;2.92;1.16;;;;;;;9.68;53.31;100359.53;2039374;79;20176;-70
2021/04/12 08:45:54;;;;;;;1.21;0.76;;;;;;;9.32;53.69;100361.56;2038778;79;20200;-70
2021/04/12 08:49:16;;;;;;;1.98;0.80;;;;;;;8.86;52.73;100376.31;2038753;79;20218;-70
2021/04/12 08:52:37;;;;;;;1.99;0.90;;;;;;;8.34;52.95;100384.78;2038084;79;20168;-70
2021/04/12 08:56:03;;;;;;;9.76;1.49;;;;;;;8.07;54.96;100378.16;2038277;79;20201;-70
2021/04/12 08:59:21;;;;;;;0.74;0.71;;;;;;;8.16;55.72;100383.53;2038836;79;20206;-70
2021/04/12 09:02:40;;;;;;;2.42;1.31;;;;;;;8.50;56.17;100385.97;2039217;79;20221;-70
2021/04/12 09:06:07;;;;;;;0.79;0.77;;;;;;;9.28;55.59;100391.72;2039401;79;20176;-70
2021/04/12 09:09:46;;;;;;;2.47;0.70;;;;;;;9.56;51.51;100390.47;2038861;79;20186;-71
2021/04/12 09:12:53;;;;;;;1.96;0.91;;;;;;;9.75;52.35;100393.34;2039348;79;20173;-70
2021/04/12 09:16:13;;;;;;;0.71;0.56;;;;;;;9.53;48.85;100386.97;2038316;79;20218;-70
2021/04/12 09:19:27;;;;;;;0.47;0.34;;;;;;;9.21;50.51;100395.09;2039925;79;20201;-70
2021/04/12 09:22:57;;;;;;;1.88;0.55;;;;;;;8.88;49.80;100391.88;2039321;79;20168;-70
2021/04/12 09:26:22;;;;;;;1.63;0.70;;;;;;;8.65;51.50;100396.63;2037899;79;20180;-70
2021/04/12 09:29:39;;;;;;;0.88;0.50;;;;;;;8.37;52.08;100403.84;2039655;79;20703;-70
2021/04/12 09:33:18;;;;;;;1.75;0.55;;;;;;;8.20;52.99;100397.41;2041167;79;20353;-70
2021/04/12 09:36:51;;;;;;;3.10;0.61;;;;;;;8.01;51.03;100405.59;2040983;79;20184;-70
2021/04/12 09:40:28;;;;;;;2.85;0.66;;;;;;;8.09;52.08;100407.53;2041233;79;20174;-71
2021/04/12 09:44:00;;;;;;;1.75;0.57;;;;;;;8.12;53.02;100405.00;2040425;79;20328;-71
2021/04/12 09:47:40;;;;;;;1.59;0.80;;;;;;;8.16;52.02;100413.69;2040890;79;20822;-71
2021/04/12 09:50:41;;;;;;;;;;;;;;;8.23;52.53;100405.22;2040737;79;20339;-71
2021/04/12 09:54:05;;;;;;;0.82;0.80;;;;;;;8.36;52.98;100406.41;2040479;79;20782;-71
2021/04/12 09:57:34;;;;;;;1.89;0.84;;;;;;;8.37;52.29;100418.50;2040139;79;20681;-71
2021/04/12 10:01:09;;;;;;;1.20;0.60;;;;;;;8.32;52.48;100412.31;2040020;79;20613;-71
2021/04/12 10:04:30;;;;;;;1.34;0.93;;;;;;;8.13;51.63;100416.22;2041752;79;20771;-71
2021/04/12 10:08:02;;;;;;;2.28;0.90;;;;;;;8.20;53.84;100412.91;2040609;79;20338;-71
2021/04/12 10:11:09;;;;;;;0.88;0.46;;;;;;;8.16;53.42;100421.47;2040404;79;20369;-71
2021/04/12 10:14:19;;;;;;;1.49;0.50;;;;;;;8.14;52.86;100418.84;2040667;79;20384;-70
2021/04/12 10:17:50;;;;;;;2.56;0.38;;;;;;;8.05;50.49;100431.56;2041440;79;20381;-71
2021/04/12 10:21:14;;;;;;;1.05;0.50;;;;;;;8.08;51.38;100429.06;2040433;79;20409;-71
2021/04/12 10:24:27;;;;;;;0.32;0.32;;;;;;;8.19;51.47;100424.13;2040789;79;21362;-71
2021/04/12 10:27:49;;;;;;;0.79;0.52;;;;;;;8.19;50.24;100418.94;2041094;79;20333;-71
2021/04/12 10:30:54;;;;;;;0.50;0.36;;;;;;;8.46;51.16;100416.97;2041082;79;20360;-71
2021/04/12 10:34:05;;;;;;;0.70;0.40;;;;;;;8.56;49.83;100410.25;2041938;79;20219;-71
2021/04/12 10:37:31;;;;;;;1.00;0.54;;;;;;;9.12;50.56;100399.22;2041138;79;20198;-71
2021/04/12 10:40:43;;;;;;;0.54;0.36;;;;;;;9.53;47.19;100405.13;2041404;79;20839;-71
2021/04/12 10:44:01;;;;;;;1.20;0.55;;;;;;;10.19;48.52;100393.97;2041042;79;20260;-72
2021/04/12 10:47:09;;;;;;;0.91;0.44;;;;;;;10.57;44.56;100397.06;2040891;79;20564;-71
2021/04/12 10:50:32;;;;;;;0.51;0.34;;;;;;;10.84;44.03;100396.53;2041261;79;20316;-72
2021/04/12 10:53:34;;;;;;;1.30;0.43;;;;;;;11.12;42.22;100389.84;2040647;79;20185;-71
2021/04/12 10:56:44;;;;;;;0.91;0.50;;;;;;;11.05;45.23;100385.47;2041906;79;20346;-72
2021/04/12 10:59:59;;;;;;;1.04;0.55;;;;;;;10.79;43.45;100385.22;2041623;79;20193;-72
2021/04/12 11:03:39;;;;;;;2.40;0.50;;;;;;;10.31;44.06;100388.97;2041286;79;20286;-71
2021/04/12 11:07:12;;;;;;;0.69;0.40;;;;;;;10.07;43.49;100386.91;2041514;79;20169;-71
2021/04/12 11:10:40;;;;;;;0.65;0.39;;;;;;;9.84;44.07;100385.69;2041367;79;20206;-71
2021/04/12 11:13:44;;;;;;;1.75;0.50;;;;;;;9.54;45.07;100393.91;2041240;79;20742;-71
2021/04/12 11:17:01;;;;;;;0.54;0.40;;;;;;;9.16;44.86;100401.91;2040453;79;20196;-71
2021/04/12 11:20:16;;;;;;;0.54;0.41;;;;;;;8.88;48.01;100407.44;2040928;79;20421;-72
2021/04/12 11:23:20;;;;;;;0.91;0.50;;;;;;;8.73;48.68;100411.47;2040706;79;20627;-71
2021/04/12 11:26:30;;;;;;;0.60;0.50;;;;;;;8.55;49.57;100418.00;2040342;79;20192;-71
2021/04/12 11:29:41;;;;;;;0.52;0.50;;;;;;;8.34;52.50;100414.13;2041795;79;20294;-71
2021/04/12 11:33:01;;;;;;;0.57;0.50;;;;;;;8.10;54.13;100411.88;2041079;79;21015;-70
2021/04/12 11:36:22;;;;;;;0.54;0.54;;;;;;;7.95;54.11;100408.06;2041421;79;20415;-71
2021/04/12 11:39:30;;;;;;;0.96;0.60;;;;;;;8.48;54.13;100402.34;2040747;79;20308;-71
2021/04/12 11:42:39;;;;;;;0.93;0.56;;;;;;;9.14;50.94;100403.56;2041653;79;20791;-71
2021/04/12 11:45:52;;;;;;;0.56;0.50;;;;;;;9.49;52.59;100398.97;2040943;79;20176;-71
2021/04/12 11:49:26;;;;;;;0.40;0.40;;;;;;;9.99;47.42;100404.06;2040752;79;20168;-71
2021/04/12 11:52:52;;;;;;;0.63;0.50;;;;;;;10.04;44.79;100401.53;2040698;79;20329;-71
2021/04/12 11:56:02;;;;;;;0.85;0.50;;;;;;;10.09;46.01;100408.56;2032691;79;20206;-71
2021/04/12 11:59:12;;;;;;;1.05;0.41;;;;;;;9.94;48.15;100413.53;2041783;79;20172;-71
2021/04/12 12:02:51;;;;;;;0.52;0.40;;;;;;;10.12;47.18;100406.00;2041144;79;20197;-71
2021/04/12 12:06:28;;;;;;;1.96;0.38;;;;;;;10.50;44.88;100403.94;2040234;79;20234;-71
2021/04/12 12:09:50;;;;;;;0.40;0.40;;;;;;;10.76;44.05;100413.72;2040602;79;20215;-71
2021/04/12 12:12:59;;;;;;;1.58;0.47;;;;;;;11.21;43.06;100413.34;2041168;79;20703;-72
2021/04/12 12:16:19;;;;;;;1.26;0.40;;;;;;;11.76;43.31;100417.28;2040663;79;21172;-71
2021/04/12 12:19:34;;;;;;;0.45;0.45;;;;;;;11.77;41.24;100416.41;2041010;79;20161;-71
2021/04/12 12:23:22;;;;;;;0.66;0.50;;;;;;;11.69;40.21;100415.50;2039432;79;20180;-71
2021/04/12 12:26:27;;;;;;;1.16;0.50;;;;;;;12.01;43.25;100405.31;2018804;79;20191;-72
2021/04/12 12:29:38;;;;;;;0.54;0.30;;;;;;;12.59;42.70;100407.38;2039654;79;20176;-71
2021/04/12 12:33:10;;;;;;;1.83;0.41;;;;;;;12.96;41.78;100387.50;2039375;79;20707;-71
2021/04/12 12:36:23;;;;;;;1.89;0.54;;;;;;;12.46;40.02;100398.63;2037980;79;20467;-70
2021/04/12 12:39:34;;;;;;;0.79;0.40;;;;;;;11.96;41.85;100398.34;2039195;79;20186;-71
2021/04/12 12:42:40;;;;;;;0.52;0.40;;;;;;;11.70;41.33;100396.44;2038551;79;20220;-72
2021/04/12 12:45:43;;;;;;;1.11;0.50;;;;;;;11.78;41.26;100399.06;2038678;79;20222;-72
2021/04/12 12:48:55;;;;;;;0.46;0.40;;;;;;;12.13;39.74;100398.44;2038560;79;20180;-72
2021/04/12 12:52:04;;;;;;;1.61;0.50;;;;;;;12.09;40.45;100397.56;2039004;79;21031;-72
2021/04/12 12:55:15;;;;;;;0.44;0.30;;;;;;;11.71;39.36;100402.50;2038942;79;20188;-71
2021/04/12 12:58:20;;;;;;;0.77;0.40;;;;;;;11.15;40.11;100405.50;2039086;79;20160;-70
2021/04/12 13:01:43;;;;;;;0.44;0.39;;;;;;;11.02;40.30;100407.09;2037294;79;20941;-71
2021/04/12 13:04:59;;;;;;;0.73;0.30;;;;;;;10.53;40.12;100401.34;2037483;79;20176;-71
2021/04/12 13:08:11;;;;;;;0.74;0.40;;;;;;;10.22;40.93;100407.88;2039640;79;20279;-70
2021/04/12 13:11:13;;;;;;;0.51;0.40;;;;;;;9.87;42.43;100402.16;2039192;79;20204;-71
2021/04/12 13:14:46;;;;;;;1.06;0.30;;;;;;;9.58;44.30;100399.16;2038677;79;20354;-72
2021/04/12 13:17:48;;;;;;;0.49;0.40;;;;;;;9.48;41.74;100396.38;2040642;77;21111;-71
2021/04/12 13:20:56;;;;;;;0.84;0.30;;;;;;;9.97;43.75;100392.81;2039008;79;20717;-71
2021/04/12 13:24:13;;;;;;;0.43;0.38;;;;;;;10.74;43.71;100395.53;2041519;79;20220;-71
2021/04/12 13:27:21;;;;;;;0.82;0.32;;;;;;;11.34;40.08;100386.63;2038601;79;20168;-71
2021/04/12 13:30:27;;;;;;;1.12;0.30;;;;;;;11.58;38.95;100388.53;2037796;76;20192;-69
2021/04/12 13:33:35;;;;;;;0.89;0.31;;;;;;;11.99;39.76;100382.75;2038282;79;20197;-70
2021/04/12 13:36:41;;;;;;;0.54;0.38;;;;;;;12.07;39.34;100388.88;2035292;79;20696;-69
2021/04/12 13:39:46;;;;;;;2.49;0.40;;;;;;;11.79;38.03;100395.63;2037913;79;20756;-71
2021/04/12 13:42:50;;;;;;;1.24;0.40;;;;;;;11.39;38.17;100384.03;2038113;79;20189;-71
2021/04/12 13:45:52;;;;;;;0.70;0.40;;;;;;;11.69;40.05;100394.69;2037249;77;21373;-72
2021/04/12 13:49:10;;;;;;;0.44;0.40;;;;;;;12.08;39.54;100396.69;2039357;79;20172;-72
2021/04/12 13:52:17;;;;;;;2.42;0.40;;;;;;;12.40;38.48;100398.59;2038388;79;20230;-72
2021/04/12 13:55:32;;;;;;;0.93;0.40;;;;;;;12.58;37.65;100393.47;2037923;79;20782;-72
2021/04/12 13:58:44;;;;;;;1.08;0.40;;;;;;;12.89;38.08;100377.88;2038116;79;20594;-71
2021/04/12 14:02:07;;;;;;;0.50;0.40;;;;;;;12.95;36.75;100384.00;2039610;76;102332;-71
2021/04/12 14:05:18;;;;;;;1.27;0.40;;;;;;;12.80;35.88;100377.88;2038706;79;20216;-70
2021/04/12 14:08:24;;;;;;;0.51;0.34;;;;;;;12.85;35.56;100376.16;2039963;79;20181;-69
2021/04/12 14:11:32;;;;;;;0.31;0.30;;;;;;;12.99;35.38;100371.84;2039755;79;20660;-71
2021/04/12 14:15:00;;;;;;;0.66;0.40;;;;;;;13.01;37.02;100372.72;2039002;79;20470;-71
2021/04/12 14:18:06;;;;;;;2.90;0.56;;;;;;;13.08;34.96;100376.19;2025433;79;1015990;-72
2021/04/12 14:21:19;;;;;;;0.59;0.39;;;;;;;13.17;34.49;100369.25;2035367;79;20236;-72
2021/04/12 14:24:33;;;;;;;1.04;0.36;;;;;;;13.22;33.69;100367.53;2034322;79;20173;-71
2021/04/12 14:27:37;;;;;;;0.36;0.30;;;;;;;13.05;33.18;100358.81;2034606;79;20205;-73
2021/04/12 14:30:47;;;;;;;0.47;0.30;;;;;;;13.20;35.40;100379.72;2034693;77;20589;-73
2021/04/12 14:33:53;;;;;;;0.52;0.40;;;;;;;13.13;34.04;100388.38;2039199;79;20173;-72
2021/04/12 14:37:03;;;;;;;1.20;0.34;;;;;;;12.95;35.14;100384.00;2042463;79;20180;-70
2021/04/12 14:40:32;;;;;;;0.56;0.30;;;;;;;12.88;35.81;100399.63;2039376;79;20204;-70
2021/04/12 14:43:44;;;;;;;0.46;0.38;;;;;;;12.99;36.29;100392.69;2037175;79;21121;-70
2021/04/12 14:46:50;;;;;;;0.50;0.31;;;;;;;13.05;35.60;100392.69;2039029;76;21101;-70
2021/04/12 14:50:04;;;;;;;0.49;0.40;;;;;;;13.03;35.47;100391.81;2039695;79;20657;-71
2021/04/12 14:53:12;;;;;;;2.25;0.41;;;;;;;13.17;34.74;100381.44;2036908;79;20189;-70
2021/04/12 14:56:26;;;;;;;1.76;0.40;;;;;;;13.11;34.98;100389.25;2039114;79;20222;-70
2021/04/12 14:59:46;;;;;;;0.45;0.36;;;;;;;13.24;35.07;100377.97;2039533;79;20218;-71
2021/04/12 15:02:57;;;;;;;0.99;0.50;;;;;;;13.05;35.54;100378.78;2038479;77;21269;-70
2021/04/12 15:06:09;;;;;;;0.50;0.30;;;;;;;13.03;36.15;100376.19;2039494;79;20327;-70
2021/04/12 15:09:33;;;;;;;0.90;0.40;;;;;;;13.12;36.58;100384.03;2039964;79;20217;-71
2021/04/12 15:12:36;;;;;;;1.50;0.50;;;;;;;12.91;36.09;100381.38;2038333;79;20720;-72
2021/04/12 15:15:46;;;;;;;0.60;0.40;;;;;;;13.05;35.90;100378.78;2036649;76;22199;-71
2021/04/12 15:18:51;;;;;;;1.19;0.43;;;;;;;12.71;35.28;100373.50;2039161;79;20181;-71
2021/04/12 15:22:00;;;;;;;0.75;0.30;;;;;;;12.60;35.70;100381.31;2039494;79;20200;-72
2021/04/12 15:25:11;;;;;;;0.29;0.25;;;;;;;12.68;35.89;100379.59;2038706;79;20206;-72
2021/04/12 15:28:29;;;;;;;0.95;0.30;;;;;;;12.84;35.59;100380.50;2042807;79;20456;-72
2021/04/12 15:31:35;;;;;;;0.59;0.40;;;;;;;13.06;35.58;100380.53;2039716;76;31480;-72
2021/04/12 15:34:42;;;;;;;5.76;5.04;;;;;;;12.88;35.24;100379.63;2039180;79;20311;-72
2021/04/12 15:38:00;;;;;;;0.70;0.70;;;;;;;12.83;35.51;100383.09;2038535;79;20510;-74
2021/04/12 15:41:08;;;;;;;1.06;0.66;;;;;;;12.65;36.77;100374.38;2039872;79;20343;-72
2021/04/12 15:44:32;;;;;;;0.68;0.43;;;;;;;12.37;35.82;100391.63;2038931;79;20186;-72
2021/04/12 15:47:35;;;;;;;0.85;0.50;;;;;;;12.16;36.29;100393.25;2033229;77;21973;-73